Time;durP1;ratioP1;P1;durP2;ratioP2;P2;SDS_P1;SDS_P2;PMS_P1;PMS_P2;Temp;Humidity;BMP_temperature;BMP_pressure;BME280_temperature;BME280_humidity;BME280_pressure;Samples;Min_cycle;Max_cycle;Signal;HPM_P1;HPM_P2
2023/10/05 00:01:27;;;;;;;6.43;2.40;;;11.50;80.20;;;13.41;55.13;98606.41;5032543;28;20044;-59
2023/10/05 00:03:55;;;;;;;2.72;1.60;;;11.50;80.20;;;13.40;55.13;98610.09;5031483;28;20040;-59
2023/10/05 00:06:23;;;;;;;4.63;2.10;;;11.50;80.20;;;13.38;55.24;98604.91;5032315;28;20045;-59
2023/10/05 00:08:54;;;;;;;5.72;2.08;;;11.50;80.20;;;13.39;55.13;98609.22;5029955;28;20049;-59
2023/10/05 00:11:36;;;;;;;4.57;1.95;;;11.50;80.30;;;13.39;55.19;98608.41;5031045;28;20049;-59
2023/10/05 00:14:07;;;;;;;5.38;2.00;;;11.50;80.50;;;13.39;55.22;98603.03;5032417;28;20064;-59
2023/10/05 00:16:38;;;;;;;4.60;2.35;;;11.50;80.50;;;13.36;55.19;98603.38;5031733;28;20049;-60
2023/10/05 00:19:15;;;;;;;5.28;2.78;;;11.50;80.50;;;13.35;55.31;98591.81;5032377;28;20485;-59
2023/10/05 00:21:51;;;;;;;3.38;2.22;;;11.50;80.60;;;13.35;55.27;98599.00;5023586;28;20521;-59
2023/10/05 00:24:31;;;;;;;3.67;2.47;;;11.50;80.60;;;13.35;55.27;98596.34;5031924;28;20053;-59
2023/10/05 00:26:59;;;;;;;4.63;2.33;;;11.50;80.60;;;13.35;55.41;98582.97;5030711;28;20052;-59
2023/10/05 00:29:28;;;;;;;3.13;1.83;;;11.50;80.50;;;13.33;55.46;98577.75;5031834;28;20493;-60
2023/10/05 00:32:00;;;;;;;4.53;2.37;;;11.50;80.50;;;13.32;55.35;98573.44;5030674;28;20049;-59
2023/10/05 00:34:28;;;;;;;2.72;1.67;;;11.40;80.30;;;13.33;55.45;98574.25;5030551;28;20045;-59
2023/10/05 00:36:58;;;;;;;5.72;2.42;;;11.50;80.20;;;13.33;55.40;98572.41;5030470;28;20497;-59
2023/10/05 00:39:30;;;;;;;5.30;2.80;;;11.50;80.00;;;13.36;55.55;98579.31;5030301;28;20057;-60
2023/10/05 00:42:08;;;;;;;4.75;2.35;;;11.50;80.60;;;13.34;55.41;98581.31;5030547;28;20057;-60
2023/10/05 00:44:39;;;;;;;4.43;2.08;;;11.50;79.10;;;13.36;55.49;98579.31;5029560;28;20398;-59
2023/10/05 00:47:07;;;;;;;6.05;2.22;;;11.60;79.40;;;13.38;55.56;98577.31;5029793;28;20045;-60
2023/10/05 00:49:48;;;;;;;4.68;1.98;;;11.60;79.50;;;13.40;55.69;98575.31;5030156;28;20045;-60
2023/10/05 00:52:18;;;;;;;4.32;2.50;;;11.60;79.50;;;13.41;55.56;98573.47;5031013;28;20064;-60
2023/10/05 00:54:51;;;;;;;6.82;3.08;;;11.60;79.60;;;13.42;55.65;98567.97;5023953;28;20049;-59
2023/10/05 00:57:23;;;;;;;5.55;2.63;;;11.60;79.40;;;13.43;55.53;98566.13;5030390;28;20050;-59
2023/10/05 01:02:35;;;;;;;3.65;2.00;;;11.70;79.30;;;13.47;55.45;98559.47;5030240;28;20053;-60
2023/10/05 01:05:34;;;;;;;4.75;2.47;;;11.70;79.00;;;13.46;55.52;98553.28;5046299;28;20053;-59
2023/10/05 01:08:04;;;;;;;3.72;2.10;;;11.70;78.90;;;13.47;55.57;98551.44;5025647;28;20401;-59
2023/10/05 01:10:43;;;;;;;6.45;2.75;;;11.70;78.80;;;13.48;55.33;98543.28;5030629;28;20053;-59
2023/10/05 01:13:28;;;;;;;6.30;3.13;;;11.70;79.20;;;13.47;55.52;98536.22;5031029;28;20042;-59
2023/10/05 01:15:57;;;;;;;4.30;2.28;;;11.80;79.40;;;13.49;55.56;98536.94;5024628;28;20044;-60
2023/10/05 01:18:27;;;;;;;5.50;2.63;;;11.70;79.20;;;13.48;55.54;98540.59;5021692;28;20071;-59
2023/10/05 01:20:57;;;;;;;6.28;2.20;;;11.70;79.40;;;13.49;55.68;98544.09;5013911;28;20412;-59
2023/10/05 01:23:37;;;;;;;5.38;2.20;;;11.70;79.50;;;13.48;55.58;98540.59;5029667;28;20045;-60
2023/10/05 01:26:12;;;;;;;6.45;2.75;;;11.70;79.20;;;13.50;55.57;98554.66;5030065;28;20056;-60
2023/10/05 01:28:41;;;;;;;4.40;1.88;;;11.70;79.00;;;13.48;55.52;98550.47;5029593;28;20041;-59
2023/10/05 01:31:16;;;;;;;3.75;1.92;;;11.70;78.80;;;13.52;55.29;98546.47;5029651;28;20045;-59
2023/10/05 01:33:46;;;;;;;4.22;2.10;;;11.70;78.30;;;13.55;55.29;98548.81;5030939;28;20049;-59
2023/10/05 01:36:18;;;;;;;3.90;2.03;;;11.80;78.10;;;13.55;55.30;98541.66;5029241;28;20064;-60
2023/10/05 01:38:48;;;;;;;4.33;1.87;;;11.80;77.90;;;13.57;55.28;98536.97;5030009;28;20048;-59
2023/10/05 01:41:21;;;;;;;3.25;1.70;;;11.80;77.80;;;13.58;55.34;98533.28;5030805;28;20307;-59
2023/10/05 01:43:49;;;;;;;6.47;2.05;;;11.80;78.20;;;13.58;55.13;98529.78;5030950;28;20488;-59
2023/10/05 01:46:17;;;;;;;5.78;2.42;;;11.80;77.80;;;13.57;55.17;98536.97;5029033;28;20042;-60
2023/10/05 01:48:45;;;;;;;3.25;1.67;;;11.80;77.90;;;13.57;55.31;98533.44;5029255;28;20409;-59
2023/10/05 01:51:21;;;;;;;3.45;1.70;;;11.80;77.80;;;13.57;55.28;98528.09;5028963;28;20044;-60
2023/10/05 01:53:55;;;;;;;4.35;2.00;;;11.80;77.50;;;13.56;55.22;98518.41;5021361;28;20045;-60
2023/10/05 01:56:23;;;;;;;4.05;2.25;;;11.80;77.80;;;13.54;55.20;98523.06;5029647;28;20064;-59
2023/10/05 01:58:54;;;;;;;5.72;1.95;;;11.70;78.50;;;13.49;55.09;98525.38;5021346;28;20440;-60
2023/10/05 02:01:28;;;;;;;4.82;2.22;;;11.70;78.60;;;13.47;55.06;98527.38;5029278;28;20057;-59
2023/10/05 02:03:57;;;;;;;6.78;2.30;;;11.70;78.20;;;13.48;54.97;98537.09;5022283;28;20417;-60
2023/10/05 02:06:28;;;;;;;2.97;1.88;;;11.70;77.50;;;13.49;54.98;98528.91;5028486;28;20045;-60
2023/10/05 02:08:56;;;;;;;5.20;3.05;;;11.70;77.20;;;13.47;54.92;98519.34;5029477;28;20508;-59
2023/10/05 02:11:24;;;;;;;4.65;2.03;;;11.70;77.50;;;13.45;54.91;98516.81;5012738;28;20046;-59
2023/10/05 02:13:57;;;;;;;6.03;2.10;;;11.70;77.90;;;13.42;54.81;98519.84;5029840;28;20038;-60
2023/10/05 02:16:26;;;;;;;6.35;2.20;;;11.60;77.70;;;13.41;54.82;98517.31;5030321;28;20152;-59
2023/10/05 02:18:55;;;;;;;5.10;2.25;;;11.60;77.90;;;13.36;54.88;98518.63;5029027;28;20048;-59
2023/10/05 02:21:36;;;;;;;6.00;1.88;;;11.50;78.10;;;13.34;55.01;98528.66;5029019;28;20046;-59
2023/10/05 02:24:12;;;;;;;5.63;1.88;;;11.50;78.20;;;13.30;55.08;98527.28;5030548;28;20044;-59
2023/10/05 02:29:31;;;;;;;5.82;2.47;;;11.40;79.10;;;13.25;55.22;98523.38;5029337;28;20049;-59
2023/10/05 02:34:41;;;;;;;3.83;2.10;;;11.40;78.70;;;13.26;55.47;98522.34;5028967;28;20521;-60
2023/10/05 02:37:12;;;;;;;4.13;2.08;;;11.40;78.50;;;13.27;55.83;98524.88;5029019;28;20050;-59
2023/10/05 02:39:41;;;;;;;4.80;2.03;;;11.50;78.50;;;13.27;55.37;98524.88;5030198;28;20592;-59
2023/10/05 02:42:12;;;;;;;4.97;2.75;;;11.50;78.50;;;13.28;55.31;98518.56;5045465;28;20037;-60
2023/10/05 02:44:42;;;;;;;5.60;2.10;;;11.50;78.60;;;13.27;55.49;98519.53;5028708;28;20048;-59
2023/10/05 02:47:10;;;;;;;3.05;2.08;;;11.40;78.90;;;13.28;55.24;98509.66;5028853;28;20398;-59
2023/10/05 02:49:44;;;;;;;3.80;2.60;;;11.40;78.90;;;13.24;55.35;98513.66;5028838;28;20046;-59
2023/10/05 02:52:14;;;;;;;4.28;2.28;;;11.30;79.50;;;13.20;55.45;98511.31;5029223;28;20108;-59
2023/10/05 02:54:43;;;;;;;6.13;2.17;;;11.30;79.70;;;13.19;55.37;98512.28;5029889;28;20080;-59
2023/10/05 02:57:16;;;;;;;5.97;1.95;;;11.30;80.00;;;13.18;55.49;98505.28;5012226;28;20056;-59
2023/10/05 02:59:44;;;;;;;3.28;1.92;;;11.30;80.70;;;13.19;55.49;98501.59;5028784;28;20056;-60
2023/10/05 03:02:16;;;;;;;4.70;2.17;;;11.30;79.40;;;13.22;55.24;98500.44;5030614;28;20045;-59
2023/10/05 03:04:45;;;;;;;3.92;3.20;;;11.40;78.90;;;13.23;55.29;98494.09;5033486;28;20042;-60
2023/10/05 03:07:18;;;;;;;5.10;2.33;;;11.40;78.40;;;13.27;55.48;98505.31;5032309;28;20056;-60
2023/10/05 03:09:48;;;;;;;5.55;1.70;;;11.50;78.10;;;13.30;55.36;98510.38;5031927;28;20390;-60
2023/10/05 03:12:20;;;;;;;4.18;1.90;;;11.60;77.60;;;13.34;55.24;98504.56;5040334;28;20436;-58
2023/10/05 03:14:54;;;;;;;7.30;1.85;;;11.60;77.20;;;13.39;55.36;98506.75;5031758;28;20045;-59
2023/10/05 03:17:26;;;;;;;3.78;1.60;;;11.70;77.70;;;13.41;55.05;98507.44;5031726;28;20049;-59
2023/10/05 03:19:54;;;;;;;3.80;1.83;;;11.70;77.10;;;13.44;55.04;98509.81;5031970;28;20048;-59
2023/10/05 03:22:23;;;;;;;6.35;2.33;;;11.70;77.00;;;13.44;55.03;98507.13;5031677;28;20049;-58
2023/10/05 03:24:56;;;;;;;5.53;2.40;;;11.70;76.90;;;13.46;55.06;98512.34;5032086;28;20045;-59
2023/10/05 03:27:25;;;;;;;4.28;2.53;;;11.70;77.10;;;13.47;55.03;98505.97;5031570;28;20038;-59
2023/10/05 03:29:59;;;;;;;6.43;2.33;;;11.70;78.10;;;13.49;55.27;98509.31;5031637;28;20061;-58
2023/10/05 03:32:28;;;;;;;4.32;2.17;;;11.80;77.40;;;13.52;55.32;98512.53;5031668;28;20053;-59
2023/10/05 03:34:58;;;;;;;4.72;2.58;;;11.80;77.60;;;13.54;55.32;98510.53;5032925;28;20500;-58
2023/10/05 03:37:29;;;;;;;5.68;2.63;;;11.80;77.50;;;13.56;55.48;98511.22;5031387;28;20420;-59
2023/10/05 03:42:32;;;;;;;7.43;2.85;;;11.90;78.20;;;13.59;55.46;98518.09;5016033;28;20049;-58
2023/10/05 03:45:03;;;;;;;3.30;2.03;;;11.80;78.20;;;13.59;55.29;98512.75;5023610;28;20048;-59
2023/10/05 03:47:31;;;;;;;7.18;2.92;;;11.80;78.10;;;13.59;55.24;98520.78;5031504;28;20066;-58
2023/10/05 03:49:59;;;;;;;4.55;3.53;;;11.80;78.00;;;13.58;55.48;98524.44;5031574;28;20042;-58
2023/10/05 03:52:32;;;;;;;5.93;2.70;;;11.80;78.20;;;13.59;55.44;98526.13;5031449;28;20068;-58
2023/10/05 03:55:11;;;;;;;5.57;2.20;;;11.80;78.40;;;13.61;55.52;98525.94;5023259;28;20053;-60
2023/10/05 03:57:42;;;;;;;4.93;2.60;;;11.80;78.60;;;13.58;55.58;98533.28;5030256;28;20045;-59
2023/10/05 04:02:53;;;;;;;4.80;2.53;;;11.80;78.60;;;13.58;55.55;98540.47;5031068;28;20056;-59
2023/10/05 04:05:23;;;;;;;4.20;2.25;;;11.70;78.60;;;13.55;55.30;98538.13;5031225;28;20056;-58
2023/10/05 04:08:10;;;;;;;5.47;2.25;;;11.70;78.60;;;13.52;55.25;98541.97;5014531;28;20528;-58
2023/10/05 04:10:52;;;;;;;3.80;2.53;;;11.60;78.60;;;13.51;55.31;98542.97;5032446;28;20038;-60
2023/10/05 04:13:21;;;;;;;5.25;2.30;;;11.60;78.90;;;13.48;55.27;98532.56;5031265;28;20493;-60
2023/10/05 04:15:51;;;;;;;4.97;2.38;;;11.60;79.30;;;13.47;55.54;98535.41;5032086;28;20057;-60
2023/10/05 04:18:20;;;;;;;6.23;3.53;;;11.60;79.40;;;13.46;55.68;98539.91;5031997;28;20064;-60
2023/10/05 04:20:48;;;;;;;5.13;2.50;;;11.60;79.80;;;13.45;55.80;98538.22;5031825;28;20060;-59
2023/10/05 04:23:26;;;;;;;3.92;2.80;;;11.60;80.00;;;13.46;55.83;98526.53;5032506;28;20048;-59
2023/10/05 04:25:56;;;;;;;7.28;2.10;;;11.60;80.20;;;13.44;55.84;98535.72;5032016;28;20045;-59
2023/10/05 04:28:39;;;;;;;3.42;2.00;;;11.60;80.00;;;13.42;55.73;98525.19;5031491;28;20076;-60
2023/10/05 04:31:13;;;;;;;5.55;1.98;;;11.60;80.20;;;13.42;55.80;98524.34;5024535;28;20041;-59
2023/10/05 04:33:43;;;;;;;3.00;1.80;;;11.50;80.40;;;13.41;55.90;98520.00;5031944;28;20049;-60
2023/10/05 04:36:11;;;;;;;3.75;2.00;;;11.50;80.60;;;13.38;55.91;98524.66;5031497;28;20041;-59
2023/10/05 04:38:38;;;;;;;5.65;2.03;;;11.50;80.60;;;13.35;56.04;98524.13;5030494;28;20049;-59
2023/10/05 04:41:06;;;;;;;5.82;2.28;;;11.40;80.90;;;13.34;56.06;98525.97;5024325;28;20045;-59
2023/10/05 04:43:34;;;;;;;9.00;2.28;;;11.40;81.00;;;13.33;56.15;98528.78;5031730;28;20049;-60
2023/10/05 04:46:05;;;;;;;6.20;2.60;;;11.50;81.10;;;13.35;56.20;98518.78;5031464;28;20045;-59
2023/10/05 04:48:33;;;;;;;7.68;2.17;;;11.50;80.80;;;13.36;56.20;98513.28;5031305;28;20429;-60
2023/10/05 04:51:01;;;;;;;5.18;1.95;;;11.50;80.80;;;13.39;56.32;98526.31;5031458;28;20075;-60
2023/10/05 04:53:30;;;;;;;7.30;2.28;;;11.60;81.40;;;13.41;56.21;98522.66;5022411;28;20094;-60
2023/10/05 05:07:08;;;;;;;6.40;3.47;;;11.50;81.00;;;13.35;56.22;98524.13;5014418;28;20479;-59
2023/10/05 05:09:39;;;;;;;4.68;3.50;;;11.50;80.80;;;13.36;56.28;98518.63;5031284;28;20041;-60
2023/10/05 05:12:16;;;;;;;8.10;3.10;;;11.50;80.70;;;13.39;56.31;98514.78;5023152;28;20038;-60
2023/10/05 05:14:46;;;;;;;5.63;2.87;;;11.60;80.30;;;13.40;56.37;98508.47;5030993;28;20055;-60
2023/10/05 05:17:19;;;;;;;4.30;2.45;;;11.60;80.50;;;13.40;56.22;98516.47;5029564;28;20052;-60
2023/10/05 05:19:47;;;;;;;4.95;2.67;;;11.60;80.30;;;13.37;56.10;98514.94;5031125;28;20105;-59
2023/10/05 05:22:18;;;;;;;5.32;2.85;;;11.50;80.50;;;13.36;56.24;98510.59;5031328;28;20267;-59
2023/10/05 05:24:46;;;;;;;4.80;2.60;;;11.50;80.60;;;13.34;56.18;98517.94;5029550;28;20497;-59
2023/10/05 05:29:45;;;;;;;6.72;2.80;;;11.50;80.80;;;13.34;56.18;98517.94;5030837;28;20402;-60
2023/10/05 05:32:13;;;;;;;7.13;2.70;;;11.50;80.60;;;13.32;56.21;98522.63;5029764;28;20040;-60
2023/10/05 05:34:43;;;;;;;5.15;2.92;;;11.50;80.80;;;13.31;56.21;98534.28;5030871;28;20416;-60
2023/10/05 05:37:13;;;;;;;6.15;3.28;;;11.50;80.70;;;13.30;56.38;98534.44;5021475;28;20049;-59
2023/10/05 05:39:42;;;;;;;4.20;2.08;;;11.40;81.00;;;13.27;56.40;98532.91;5030605;28;20049;-59
2023/10/05 05:42:14;;;;;;;4.80;2.17;;;11.40;81.40;;;13.27;56.25;98532.06;5022990;28;20045;-59
2023/10/05 05:44:42;;;;;;;3.17;2.60;;;11.40;81.20;;;13.26;56.53;98536.59;5029452;28;20460;-61
2023/10/05 05:47:10;;;;;;;3.97;2.50;;;11.40;81.10;;;13.29;56.38;98525.56;5030193;28;20041;-59
2023/10/05 05:49:45;;;;;;;4.03;2.43;;;11.50;81.00;;;13.29;56.57;98512.19;5030564;28;20068;-60
2023/10/05 05:52:14;;;;;;;;;;;11.50;81.00;;;13.31;56.52;98520.09;5022987;28;20280;-60
2023/10/05 05:54:42;;;;;;;6.70;2.92;;;11.60;81.00;;;13.35;56.44;98530.31;5029290;28;19929;-59
2023/10/05 05:57:11;;;;;;;5.78;2.63;;;11.50;81.00;;;13.33;56.48;98521.59;5030337;28;20038;-59
2023/10/05 05:59:39;;;;;;;6.75;2.72;;;11.50;81.00;;;13.36;56.56;98523.16;5029270;28;20046;-59
2023/10/05 06:02:08;;;;;;;7.20;2.88;;;11.60;80.90;;;13.36;56.55;98532.00;5030309;28;20056;-59
2023/10/05 06:04:40;;;;;;;6.07;2.50;;;11.60;80.90;;;13.37;56.46;98535.50;5030431;28;20049;-59
2023/10/05 06:07:13;;;;;;;3.88;2.35;;;11.60;81.10;;;13.39;56.42;98539.69;5030213;28;20041;-59
2023/10/05 06:09:43;;;;;;;5.40;2.22;;;11.60;80.50;;;13.41;56.42;98533.34;5030604;28;20046;-59
2023/10/05 06:12:16;;;;;;;6.65;2.22;;;11.60;79.80;;;13.37;56.35;98540.84;5027988;28;20037;-59
2023/10/05 06:14:44;;;;;;;6.68;2.95;;;11.50;80.20;;;13.36;56.30;98547.22;5030352;28;20049;-58
2023/10/05 06:17:11;;;;;;;6.03;1.83;;;11.50;80.80;;;13.37;56.49;98544.34;5028873;28;20044;-59
2023/10/05 06:19:39;;;;;;;5.60;1.90;;;11.50;81.10;;;13.38;56.63;98551.41;5029034;28;20052;-59
2023/10/05 06:22:07;;;;;;;2.90;1.85;;;11.50;81.20;;;13.39;56.70;98555.72;5029994;28;20445;-58
2023/10/05 06:24:37;;;;;;;3.78;2.70;;;11.60;81.10;;;13.40;56.65;98551.25;5030208;28;20124;-59
2023/10/05 06:27:06;;;;;;;3.92;2.72;;;11.60;81.30;;;13.40;56.87;98556.59;5029962;28;20052;-58
2023/10/05 06:29:35;;;;;;;6.15;3.65;;;11.60;81.60;;;13.41;56.80;98557.44;5028811;28;20052;-59
2023/10/05 06:32:04;;;;;;;8.23;4.03;;;11.60;81.80;;;13.45;56.84;98566.81;5030116;28;20045;-60
2023/10/05 06:34:32;;;;;;;6.95;2.53;;;11.60;81.60;;;13.47;56.71;98572.84;5029919;28;20049;-59
2023/10/05 06:37:02;;;;;;;5.95;2.13;;;11.70;81.20;;;13.51;56.69;98563.50;5030558;28;20052;-59
2023/10/05 06:39:30;;;;;;;5.82;2.50;;;11.80;80.70;;;13.54;56.76;98572.06;5033295;28;20049;-59
2023/10/05 06:41:58;;;;;;;8.95;2.65;;;11.80;80.30;;;13.58;56.56;98572.59;5033652;28;20064;-59
2023/10/05 06:44:30;;;;;;;7.07;4.00;;;11.90;79.80;;;13.60;56.53;98573.28;5032191;28;20049;-59
2023/10/05 06:47:04;;;;;;;5.05;2.00;;;11.90;79.80;;;13.65;56.51;98584.34;5033561;28;20053;-59
2023/10/05 06:49:32;;;;;;;5.40;2.38;;;11.90;79.80;;;13.70;56.58;98587.38;5033934;28;20052;-59
2023/10/05 06:52:01;;;;;;;4.72;2.10;;;12.00;79.50;;;13.75;56.67;98578.88;5033905;28;20520;-59
2023/10/05 06:54:30;;;;;;;5.28;2.30;;;12.10;79.50;;;13.81;56.40;98580.09;5034011;28;20049;-60
2023/10/05 06:56:58;;;;;;;5.78;2.70;;;12.10;79.20;;;13.83;56.31;98580.78;5033010;28;20065;-60
2023/10/05 06:59:26;;;;;;;5.70;2.88;;;12.20;79.10;;;13.87;56.22;98591.00;5033069;28;20072;-59
2023/10/05 07:01:54;;;;;;;4.90;2.78;;;12.20;78.70;;;13.91;56.54;98596.88;5033472;28;20072;-59
2023/10/05 07:04:25;;;;;;;7.05;2.50;;;12.20;79.40;;;13.95;56.53;98595.53;5033509;28;20041;-56
2023/10/05 07:06:53;;;;;;;5.13;2.22;;;12.30;80.10;;;14.00;56.82;98603.94;5031928;28;20433;-56
2023/10/05 07:09:26;;;;;;;3.75;2.42;;;12.30;80.40;;;14.04;56.75;98601.78;5033564;28;20304;-55
2023/10/05 07:11:54;;;;;;;5.35;2.63;;;12.40;79.70;;;14.09;56.72;98596.78;5033412;28;20046;-56
2023/10/05 07:14:21;;;;;;;5.65;3.80;;;12.50;79.40;;;14.12;56.49;98588.44;5033420;28;20056;-56
2023/10/05 07:16:53;;;;;;;4.47;2.50;;;12.50;79.10;;;14.16;56.29;98590.63;5033100;28;20041;-55
2023/10/05 07:19:20;;;;;;;4.35;2.20;;;12.50;78.30;;;14.20;55.90;98593.81;5024126;28;20056;-55
2023/10/05 07:21:48;;;;;;;4.35;2.17;;;12.50;77.10;;;14.20;56.02;98599.19;5033307;28;20053;-57
2023/10/05 07:24:15;;;;;;;12.27;2.85;;;12.60;77.20;;;14.24;55.98;98589.81;5031605;28;20075;-57
2023/10/05 07:26:43;;;;;;;6.60;2.40;;;12.70;77.30;;;14.29;56.03;98598.22;5033051;28;20348;-55
2023/10/05 07:29:12;;;;;;;5.60;3.05;;;12.70;77.40;;;14.34;55.90;98611.94;5031947;28;20040;-57
2023/10/05 07:31:57;;;;;;;8.38;2.67;;;12.70;76.70;;;14.36;55.46;98611.78;5033103;28;20052;-57
2023/10/05 07:34:25;;;;;;;4.00;2.60;;;12.70;75.90;;;14.38;55.55;98609.78;5032551;28;20034;-59
2023/10/05 07:36:54;;;;;;;7.50;2.50;;;12.80;75.80;;;14.41;55.37;98619.34;5032346;28;20038;-52
2023/10/05 07:39:23;;;;;;;5.47;2.13;;;12.80;75.70;;;14.45;55.55;98613.50;5025046;28;20420;-61
2023/10/05 07:41:51;;;;;;;12.80;4.15;;;12.90;76.20;;;14.48;55.62;98620.38;5031753;28;20041;-59
2023/10/05 07:44:18;;;;;;;12.05;3.60;;;12.90;76.40;;;14.53;55.72;98621.56;5032557;28;20052;-59
2023/10/05 07:46:47;;;;;;;7.20;3.38;;;13.00;76.60;;;14.59;55.77;98614.75;5031596;28;20047;-59
2023/10/05 07:49:14;;;;;;;6.80;2.72;;;13.10;76.80;;;14.65;55.80;98619.44;5031231;28;20045;-60
2023/10/05 07:51:42;;;;;;;7.57;2.58;;;13.10;76.90;;;14.69;55.75;98615.44;5032432;28;20531;-59
2023/10/05 07:54:10;;;;;;;10.30;3.00;;;13.10;76.60;;;14.76;56.00;98610.28;5031635;28;20052;-60
2023/10/05 07:56:37;;;;;;;5.20;3.17;;;13.20;76.90;;;14.83;55.65;98615.81;5030544;28;20048;-59
2023/10/05 07:59:06;;;;;;;5.55;3.22;;;13.30;76.50;;;14.87;55.51;98615.31;5031577;28;20037;-59
2023/10/05 08:01:34;;;;;;;6.10;2.60;;;13.40;75.50;;;14.96;55.39;98613.47;5032216;28;20042;-59
2023/10/05 08:04:02;;;;;;;5.22;2.72;;;13.50;75.30;;;15.03;55.29;98622.56;5031423;28;20120;-59
2023/10/05 08:06:30;;;;;;;6.50;2.42;;;13.60;74.50;;;15.08;55.19;98625.59;5030608;28;20045;-59
2023/10/05 08:08:58;;;;;;;13.27;3.40;;;13.60;74.30;;;15.03;54.58;98627.09;5032412;28;20516;-59
2023/10/05 08:11:25;;;;;;;7.72;3.22;;;13.60;73.70;;;15.01;54.72;98637.13;5031215;28;20045;-59
2023/10/05 08:13:53;;;;;;;7.03;3.28;;;13.50;73.90;;;15.08;54.79;98636.31;5032270;28;20389;-59
2023/10/05 08:16:22;;;;;;;7.60;3.35;;;13.60;74.30;;;15.18;54.94;98640.66;5030425;28;20049;-59
2023/10/05 08:18:50;;;;;;;8.77;3.92;;;13.70;74.10;;;15.21;54.95;98643.84;5019069;28;20041;-60
2023/10/05 08:21:18;;;;;;;6.05;3.15;;;13.80;74.30;;;15.23;54.96;98649.88;5019763;28;20056;-60
2023/10/05 08:23:45;;;;;;;9.60;3.03;;;13.80;74.80;;;15.21;54.91;98646.53;5027296;28;20045;-59
2023/10/05 08:26:15;;;;;;;8.32;3.05;;;13.70;74.20;;;15.19;54.83;98651.22;5025942;28;20041;-59
2023/10/05 08:28:48;;;;;;;5.32;2.90;;;13.80;74.80;;;15.13;54.90;98655.41;5027838;28;20088;-59
2023/10/05 08:31:23;;;;;;;5.40;2.85;;;13.70;74.40;;;15.11;55.01;98657.41;5025837;28;20057;-59
2023/10/05 08:33:54;;;;;;;6.18;2.90;;;13.70;75.20;;;15.16;55.21;98649.72;5026877;28;20041;-60
2023/10/05 08:36:22;;;;;;;6.55;2.92;;;13.70;75.30;;;15.23;55.11;98644.53;5026300;28;20049;-60
2023/10/05 08:38:50;;;;;;;6.07;3.30;;;13.80;75.40;;;15.32;55.50;98650.75;5026211;28;20120;-59
2023/10/05 08:41:32;;;;;;;8.05;3.20;;;13.90;75.80;;;15.31;55.19;98647.19;5025022;28;20049;-59
2023/10/05 08:44:06;;;;;;;5.65;3.20;;;13.90;75.40;;;15.34;55.22;98646.03;5025897;28;20045;-59
2023/10/05 08:46:43;;;;;;;5.78;3.13;;;14.00;75.50;;;15.36;55.25;98650.22;5026061;28;20053;-59
2023/10/05 08:49:11;;;;;;;8.43;3.53;;;13.90;75.70;;;15.41;55.49;98636.34;5039393;28;20045;-60
2023/10/05 08:51:40;;;;;;;7.05;3.35;;;14.00;75.50;;;15.48;55.52;98640.00;5027012;28;20045;-60
2023/10/05 08:54:26;;;;;;;6.50;2.80;;;14.10;75.70;;;15.52;55.51;98644.03;5040918;28;20053;-59
2023/10/05 08:56:57;;;;;;;9.00;3.30;;;14.20;75.60;;;15.61;55.47;98641.34;5009605;28;20060;-59
2023/10/05 08:59:28;;;;;;;7.25;3.58;;;14.30;75.50;;;15.61;55.29;98644.88;5026772;28;20525;-59
2023/10/05 09:01:59;;;;;;;5.72;3.03;;;14.30;74.60;;;15.63;55.58;98642.84;5024530;28;20065;-60
2023/10/05 09:04:43;;;;;;;7.75;2.95;;;14.40;75.00;;;15.66;55.36;98639.81;5031108;28;20505;-59
2023/10/05 09:07:37;;;;;;;7.10;3.13;;;14.40;74.80;;;15.76;55.39;98634.31;5029847;28;20033;-59
2023/10/05 09:10:25;;;;;;;8.07;3.70;;;14.50;74.10;;;15.93;55.30;98638.63;5030852;28;20053;-59
2023/10/05 09:13:07;;;;;;;9.45;4.10;;;14.70;73.20;;;16.02;54.67;98641.31;5031136;28;20497;-59
2023/10/05 09:15:50;;;;;;;6.78;3.05;;;14.80;73.10;;;16.06;54.98;98646.16;5023467;28;20046;-59
2023/10/05 09:18:18;;;;;;;9.57;3.67;;;14.90;72.50;;;16.16;54.96;98648.66;5029442;28;20496;-59
2023/10/05 09:20:50;;;;;;;10.13;3.28;;;14.90;73.40;;;16.27;54.79;98642.09;5031045;28;20041;-59
2023/10/05 09:23:24;;;;;;;7.95;3.30;;;15.10;73.20;;;16.37;54.99;98648.06;5030053;28;20048;-59
2023/10/05 09:25:53;;;;;;;7.43;3.63;;;15.20;72.60;;;16.45;54.35;98647.22;5030901;28;20034;-59
2023/10/05 09:28:45;;;;;;;7.43;3.53;;;15.30;72.20;;;16.42;54.11;98651.09;5030986;28;20152;-60
2023/10/05 09:31:13;;;;;;;103.30;20.05;;;15.20;71.10;;;16.45;54.33;98655.28;5029825;28;20352;-59
2023/10/05 09:33:53;;;;;;;20.70;6.43;;;15.20;72.40;;;16.43;54.16;98646.53;5030826;28;20041;-59
2023/10/05 09:36:22;;;;;;;31.90;9.45;;;15.20;72.10;;;16.50;53.97;98653.75;5029095;28;20060;-59
2023/10/05 09:38:51;;;;;;;25.20;6.65;;;15.20;70.80;;;16.51;53.63;98658.09;5030954;28;20497;-60
2023/10/05 09:41:20;;;;;;;14.32;3.88;;;15.20;71.20;;;16.55;53.40;98647.81;5029792;28;20046;-60
2023/10/05 09:44:01;;;;;;;10.63;3.60;;;15.20;70.10;;;16.58;53.17;98655.56;5030772;28;20412;-59
2023/10/05 09:46:33;;;;;;;6.90;2.97;;;15.30;70.20;;;16.61;53.20;98665.94;5029304;28;22336;-59
2023/10/05 09:49:03;;;;;;;6.47;3.95;;;15.30;70.10;;;16.62;53.01;98670.31;5029693;28;20049;-59
2023/10/05 09:51:35;;;;;;;8.73;3.80;;;15.40;69.80;;;16.56;53.25;98668.34;5030175;28;20041;-59
2023/10/05 09:54:10;;;;;;;12.20;3.88;;;15.40;69.90;;;16.62;52.83;98650.66;5029635;28;20052;-59
2023/10/05 09:56:41;;;;;;;9.20;4.38;;;15.40;68.60;;;16.58;52.32;98660.09;5029251;28;20497;-59
2023/10/05 09:59:18;;;;;;;8.77;3.15;;;15.40;68.00;;;16.53;52.01;98658.75;5029478;28;20045;-59
2023/10/05 10:01:49;;;;;;;20.42;4.40;;;15.30;67.80;;;16.42;51.69;98659.16;5030464;28;20041;-60
2023/10/05 10:04:35;;;;;;;39.67;8.32;;;15.20;66.90;;;16.34;51.75;98664.53;5028654;28;20517;-59
2023/10/05 10:07:24;;;;;;;8.05;3.20;;;15.20;67.10;;;16.40;51.94;98654.94;5029346;28;20043;-59
2023/10/05 10:09:54;;;;;;;19.23;5.75;;;15.20;67.40;;;16.41;52.10;98673.59;5023504;28;20416;-59
2023/10/05 10:12:33;;;;;;;8.68;3.28;;;15.20;67.60;;;16.39;52.41;98662.19;5014950;28;20049;-59
2023/10/05 10:15:02;;;;;;;35.28;7.40;;;15.20;68.40;;;16.47;52.33;98662.13;5034497;28;20520;-59
2023/10/05 10:17:34;;;;;;;10.25;3.78;;;15.20;68.10;;;16.48;52.62;98669.19;5034151;28;20041;-59
2023/10/05 10:21:12;;;;;;;10.60;3.92;;;15.30;68.40;;;16.55;52.48;98653.19;5034469;28;20056;-59
2023/10/05 10:23:21;;;;;;;6.57;3.35;;;15.30;68.50;;;16.52;52.36;98659.78;5019923;28;20529;-59
2023/10/05 10:25:52;;;;;;;11.32;5.28;;;15.30;68.90;;;16.52;51.60;98667.84;5026448;28;20033;-59
2023/10/05 10:28:49;;;;;;;8.52;3.75;;;15.40;66.00;;;16.54;51.75;98663.13;5034317;28;20052;-59
2023/10/05 10:31:48;;;;;;;9.50;3.70;;;15.40;67.30;;;16.67;51.16;98667.09;5034192;28;20041;-59
2023/10/05 10:34:52;;;;;;;15.15;4.88;;;15.50;65.10;;;16.70;51.29;98664.91;5034002;28;20420;-59
2023/10/05 10:37:39;;;;;;;10.45;4.43;;;15.70;65.10;;;16.81;50.28;98668.19;5032386;28;20053;-59
2023/10/05 10:40:27;;;;;;;8.95;3.35;;;15.80;63.60;;;16.86;50.46;98665.84;5034197;28;20493;-59
2023/10/05 10:43:06;;;;;;;7.30;3.17;;;15.80;64.30;;;16.91;50.89;98669.69;5028872;28;20041;-59
2023/10/05 10:45:44;;;;;;;8.20;3.50;;;16.00;64.60;;;17.06;50.56;98675.16;5033823;28;20052;-59
2023/10/05 10:50:52;;;;;;;11.45;3.75;;;16.00;64.90;;;16.97;50.54;98670.00;5025034;28;20049;-58
2023/10/05 10:53:25;;;;;;;12.82;4.93;;;15.90;64.40;;;16.96;49.97;98668.31;5033803;28;20037;-58
2023/10/05 10:56:04;;;;;;;;;;;15.90;63.20;;;16.80;49.65;98663.84;5049425;28;20049;-58
2023/10/05 10:58:34;;;;;;;9.15;3.58;;;15.80;63.20;;;16.88;50.06;98661.97;5033440;28;19921;-58
2023/10/05 11:01:04;;;;;;;7.65;2.90;;;15.80;64.50;;;16.72;50.10;98653.97;5033523;28;20052;-59
2023/10/05 11:03:32;;;;;;;5.53;3.30;;;15.70;64.00;;;16.70;50.09;98647.94;5031605;28;20041;-58
2023/10/05 11:06:04;;;;;;;10.00;3.42;;;15.60;63.50;;;16.90;50.39;98649.22;5033485;28;20379;-60
2023/10/05 11:08:39;;;;;;;15.32;4.43;;;15.80;65.10;;;17.06;50.19;98647.41;5033060;28;20045;-59